BWA267 TNCM-TTPP
Flight info
| Callsign | BWA267 |
|---|---|
| Flight time | N/A |
| Altitude | 19000 |
| Route | MODOR2 ELOPO UB520 ANU UM402 LIMBO/N0273F180 |
| Aircraft | AT72/M-SDFGIRY/S |
Departure
| Time | 2026-05-04 13:15 |
|---|---|
| Airport | Princess Juliana International Airport (TNCM) |
Arrival
| Time | N/A |
|---|---|
| Airport | Piarco International Airport (TTPP) |
| Time | Latitude | Longitude | Altitude | Speed | Heading |
|---|---|---|---|---|---|
| 2026-05-04 12:50 | 18.04260 | -63.11552 | 30 ft | 0 kts | 322° |
| 2026-05-04 13:09 | 18.04260 | -63.11559 | 25 ft | 2 kts | 278° |
| 2026-05-04 13:10 | 18.04254 | -63.11561 | 28 ft | 2 kts | 193° |
| 2026-05-04 13:10 | 18.04238 | -63.11550 | 25 ft | 6 kts | 151° |
| 2026-05-04 13:10 | 18.04180 | -63.11548 | 26 ft | 10 kts | 200° |
| 2026-05-04 13:10 | 18.04122 | -63.11603 | 25 ft | 13 kts | 230° |
| 2026-05-04 13:11 | 18.04065 | -63.11687 | 24 ft | 15 kts | 245° |
| 2026-05-04 13:11 | 18.04048 | -63.11799 | 24 ft | 11 kts | 261° |
| 2026-05-04 13:11 | 18.04041 | -63.11855 | 24 ft | 1 kts | 260° |
| 2026-05-04 13:11 | 18.04040 | -63.11861 | 28 ft | 0 kts | 260° |
| 2026-05-04 13:13 | 18.04039 | -63.11865 | 26 ft | 6 kts | 260° |
| 2026-05-04 13:13 | 18.04011 | -63.11930 | 24 ft | 9 kts | 232° |
| 2026-05-04 13:13 | 18.03986 | -63.11963 | 24 ft | 8 kts | 228° |
| 2026-05-04 13:13 | 18.03959 | -63.11969 | 25 ft | 3 kts | 159° |
| 2026-05-04 13:14 | 18.03946 | -63.11956 | 24 ft | 3 kts | 124° |
| 2026-05-04 13:14 | 18.03943 | -63.11940 | 27 ft | 2 kts | 96° |
| 2026-05-04 13:14 | 18.03967 | -63.11760 | 24 ft | 55 kts | 81° |
| 2026-05-04 13:14 | 18.04053 | -63.11162 | 28 ft | 107 kts | 82° |
| 2026-05-04 13:15 | 18.04202 | -63.10351 | 399 ft | 114 kts | 80° |
| 2026-05-04 13:15 | 18.04317 | -63.09523 | 874 ft | 114 kts | 96° |
| 2026-05-04 13:15 | 18.03988 | -63.08754 | 1323 ft | 118 kts | 131° |
| 2026-05-04 13:15 | 18.03207 | -63.08413 | 1682 ft | 132 kts | 166° |
| 2026-05-04 13:16 | 18.02224 | -63.08601 | 1829 ft | 159 kts | 198° |
| 2026-05-04 13:16 | 18.01173 | -63.09162 | 1858 ft | 184 kts | 197° |
| 2026-05-04 13:16 | 17.99902 | -63.09385 | 2009 ft | 181 kts | 172° |
| 2026-05-04 13:16 | 17.98678 | -63.09460 | 2559 ft | 171 kts | 180° |
| 2026-05-04 13:17 | 17.97431 | -63.09511 | 2442 ft | 198 kts | 172° |
| 2026-05-04 13:17 | 17.96067 | -63.09345 | 2875 ft | 184 kts | 164° |
| 2026-05-04 13:17 | 17.94833 | -63.09207 | 3173 ft | 191 kts | 173° |
| 2026-05-04 13:17 | 17.93456 | -63.09032 | 3214 ft | 202 kts | 165° |
| 2026-05-04 13:18 | 17.92081 | -63.08782 | 3542 ft | 201 kts | 167° |
| 2026-05-04 13:18 | 17.90637 | -63.08727 | 3728 ft | 205 kts | 172° |
| 2026-05-04 13:18 | 17.89293 | -63.08574 | 4233 ft | 190 kts | 166° |
| 2026-05-04 13:18 | 17.87975 | -63.08201 | 4194 ft | 202 kts | 154° |
| 2026-05-04 13:19 | 17.86707 | -63.07615 | 4542 ft | 195 kts | 147° |
| 2026-05-04 13:19 | 17.85770 | -63.06599 | 4560 ft | 204 kts | 113° |
| 2026-05-04 13:19 | 17.85577 | -63.05129 | 4802 ft | 196 kts | 88° |
| 2026-05-04 13:19 | 17.85621 | -63.03760 | 5364 ft | 185 kts | 94° |
| 2026-05-04 13:20 | 17.85364 | -63.02427 | 5663 ft | 190 kts | 111° |
| 2026-05-04 13:20 | 17.84817 | -63.01153 | 5945 ft | 193 kts | 114° |
| 2026-05-04 13:20 | 17.84208 | -62.99870 | 6188 ft | 196 kts | 115° |
| 2026-05-04 13:20 | 17.83607 | -62.98640 | 6715 ft | 184 kts | 115° |
| 2026-05-04 13:21 | 17.83047 | -62.97431 | 7004 ft | 182 kts | 111° |
| 2026-05-04 13:21 | 17.82527 | -62.96177 | 7048 ft | 195 kts | 111° |
| 2026-05-04 13:21 | 17.81986 | -62.94850 | 7215 ft | 197 kts | 110° |
| 2026-05-04 13:21 | 17.81519 | -62.93533 | 7568 ft | 192 kts | 108° |
| 2026-05-04 13:22 | 17.81078 | -62.92162 | 7576 ft | 204 kts | 109° |
| 2026-05-04 13:22 | 17.80512 | -62.90786 | 7757 ft | 206 kts | 113° |
| 2026-05-04 13:22 | 17.79913 | -62.89450 | 8058 ft | 199 kts | 117° |
| 2026-05-04 13:22 | 17.79220 | -62.88166 | 8160 ft | 207 kts | 116° |
| 2026-05-04 13:23 | 17.78582 | -62.86785 | 8229 ft | 211 kts | 114° |
| 2026-05-04 13:23 | 17.77965 | -62.85414 | 8541 ft | 205 kts | 114° |
| 2026-05-04 13:23 | 17.77408 | -62.84027 | 8685 ft | 209 kts | 109° |
| 2026-05-04 13:23 | 17.76845 | -62.82621 | 8862 ft | 209 kts | 116° |
| 2026-05-04 13:24 | 17.76155 | -62.81275 | 9059 ft | 209 kts | 117° |
| 2026-05-04 13:24 | 17.75496 | -62.79947 | 9274 ft | 207 kts | 116° |
| 2026-05-04 13:24 | 17.74841 | -62.78592 | 9392 ft | 211 kts | 117° |
| 2026-05-04 13:25 | 17.73724 | -62.75742 | 9889 ft | 209 kts | 107° |
| 2026-05-04 13:25 | 17.73261 | -62.74263 | 9961 ft | 216 kts | 110° |
| 2026-05-04 13:25 | 17.72715 | -62.72809 | 10215 ft | 211 kts | 112° |
| 2026-05-04 13:25 | 17.72075 | -62.71407 | 10288 ft | 218 kts | 116° |
| 2026-05-04 13:26 | 17.71472 | -62.69941 | 10374 ft | 220 kts | 111° |
| 2026-05-04 13:26 | 17.70963 | -62.68440 | 10682 ft | 214 kts | 107° |
| 2026-05-04 13:26 | 17.70606 | -62.66911 | 10797 ft | 217 kts | 102° |
| 2026-05-04 13:26 | 17.70138 | -62.65387 | 10818 ft | 224 kts | 114° |
| 2026-05-04 13:27 | 17.69460 | -62.63905 | 10950 ft | 223 kts | 118° |
| 2026-05-04 13:27 | 17.68696 | -62.62502 | 11203 ft | 219 kts | 119° |
| 2026-05-04 13:27 | 17.68068 | -62.61070 | 11318 ft | 220 kts | 110° |
| 2026-05-04 13:27 | 17.67597 | -62.59528 | 11395 ft | 222 kts | 109° |
| 2026-05-04 13:28 | 17.66939 | -62.58058 | 11437 ft | 225 kts | 123° |
| 2026-05-04 13:28 | 17.65871 | -62.56826 | 11421 ft | 232 kts | 141° |
| 2026-05-04 13:28 | 17.64511 | -62.55944 | 11613 ft | 226 kts | 149° |
| 2026-05-04 13:28 | 17.63255 | -62.55015 | 11900 ft | 219 kts | 136° |
| 2026-05-04 13:29 | 17.62332 | -62.53720 | 11864 ft | 228 kts | 115° |
| 2026-05-04 13:29 | 17.61753 | -62.52161 | 11966 ft | 228 kts | 107° |
| 2026-05-04 13:29 | 17.61362 | -62.50604 | 12349 ft | 214 kts | 107° |
| 2026-05-04 13:29 | 17.60903 | -62.49131 | 12538 ft | 214 kts | 110° |
| 2026-05-04 13:30 | 17.60349 | -62.47643 | 12506 ft | 223 kts | 114° |
| 2026-05-04 13:30 | 17.59651 | -62.46183 | 12597 ft | 224 kts | 120° |
| 2026-05-04 13:30 | 17.58862 | -62.44845 | 12774 ft | 208 kts | 124° |
| 2026-05-04 13:30 | 17.58045 | -62.43592 | 12540 ft | 217 kts | 126° |
| 2026-05-04 13:31 | 17.57136 | -62.42323 | 12340 ft | 219 kts | 130° |
| 2026-05-04 13:31 | 17.56060 | -62.41214 | 12259 ft | 217 kts | 141° |
| 2026-05-04 13:31 | 17.54845 | -62.40272 | 12160 ft | 217 kts | 143° |
| 2026-05-04 13:31 | 17.53654 | -62.39361 | 12206 ft | 210 kts | 144° |
| 2026-05-04 13:32 | 17.52427 | -62.38509 | 11988 ft | 215 kts | 149° |
| 2026-05-04 13:32 | 17.51079 | -62.37768 | 11744 ft | 221 kts | 153° |
| 2026-05-04 13:32 | 17.49661 | -62.37176 | 11680 ft | 217 kts | 162° |